sensor_id;sensor_type;location;lat;lon;timestamp;pressure;altitude;pressure_sealevel;temperature;humidity
77431;BME280;66498;48.564;19.272;2023-08-17T00:01:41;97973.56;;;20.83;80.35
77431;BME280;66498;48.564;19.272;2023-08-17T00:04:07;97977.59;;;20.75;81.26
77431;BME280;66498;48.564;19.272;2023-08-17T00:06:33;97974.97;;;20.70;80.50
77431;BME280;66498;48.564;19.272;2023-08-17T00:08:58;97975.13;;;20.84;81.05
77431;BME280;66498;48.564;19.272;2023-08-17T00:11:24;97977.00;;;20.84;80.12
77431;BME280;66498;48.564;19.272;2023-08-17T00:13:49;97969.97;;;20.98;79.16
77431;BME280;66498;48.564;19.272;2023-08-17T00:16:15;97966.72;;;21.06;77.59
77431;BME280;66498;48.564;19.272;2023-08-17T00:18:40;97956.00;;;21.45;77.49
77431;BME280;66498;48.564;19.272;2023-08-17T00:21:06;97949.66;;;21.36;78.18
77431;BME280;66498;48.564;19.272;2023-08-17T00:23:31;97947.47;;;21.09;80.27
77431;BME280;66498;48.564;19.272;2023-08-17T00:25:57;97946.91;;;21.12;80.48
77431;BME280;66498;48.564;19.272;2023-08-17T00:28:22;97942.00;;;21.24;79.84
77431;BME280;66498;48.564;19.272;2023-08-17T00:30:48;97945.22;;;21.26;79.63
77431;BME280;66498;48.564;19.272;2023-08-17T00:33:13;97944.13;;;21.27;79.86
77431;BME280;66498;48.564;19.272;2023-08-17T00:35:38;97949.97;;;21.30;80.24
77431;BME280;66498;48.564;19.272;2023-08-17T00:38:04;97942.81;;;21.25;80.42
77431;BME280;66498;48.564;19.272;2023-08-17T00:40:29;97936.97;;;21.23;80.29
77431;BME280;66498;48.564;19.272;2023-08-17T00:42:55;97938.50;;;21.29;79.75
77431;BME280;66498;48.564;19.272;2023-08-17T00:45:22;97928.44;;;21.21;79.64
77431;BME280;66498;48.564;19.272;2023-08-17T00:47:47;97926.59;;;21.16;79.03
77431;BME280;66498;48.564;19.272;2023-08-17T00:50:13;97933.63;;;21.07;79.04
77431;BME280;66498;48.564;19.272;2023-08-17T00:52:40;97931.91;;;20.87;79.63
77431;BME280;66498;48.564;19.272;2023-08-17T00:55:07;97926.75;;;20.57;82.22
77431;BME280;66498;48.564;19.272;2023-08-17T00:57:33;97925.44;;;20.54;82.72
77431;BME280;66498;48.564;19.272;2023-08-17T00:59:59;97924.25;;;20.75;82.36
77431;BME280;66498;48.564;19.272;2023-08-17T01:02:25;97927.56;;;20.57;83.22
77431;BME280;66498;48.564;19.272;2023-08-17T01:04:51;97939.59;;;20.49;84.11
77431;BME280;66498;48.564;19.272;2023-08-17T01:07:17;97931.31;;;20.56;83.51
77431;BME280;66498;48.564;19.272;2023-08-17T01:09:43;97924.34;;;20.60;84.53
77431;BME280;66498;48.564;19.272;2023-08-17T01:12:22;97929.38;;;20.67;84.06
77431;BME280;66498;48.564;19.272;2023-08-17T01:15:05;97935.34;;;20.93;83.27
77431;BME280;66498;48.564;19.272;2023-08-17T01:17:38;97929.22;;;20.87;83.53
77431;BME280;66498;48.564;19.272;2023-08-17T01:20:08;97922.94;;;20.73;84.62
77431;BME280;66498;48.564;19.272;2023-08-17T01:22:41;97917.34;;;20.69;83.39
77431;BME280;66498;48.564;19.272;2023-08-17T01:25:08;97924.56;;;20.69;83.17
77431;BME280;66498;48.564;19.272;2023-08-17T01:27:41;97922.28;;;20.52;84.50
77431;BME280;66498;48.564;19.272;2023-08-17T01:30:08;97927.63;;;20.42;84.64
77431;BME280;66498;48.564;19.272;2023-08-17T01:33:03;97924.69;;;19.73;88.79
77431;BME280;66498;48.564;19.272;2023-08-17T01:35:50;97932.19;;;19.41;91.92
77431;BME280;66498;48.564;19.272;2023-08-17T01:38:20;97937.78;;;19.44;92.36
77431;BME280;66498;48.564;19.272;2023-08-17T01:40:48;97937.53;;;19.35;93.68
77431;BME280;66498;48.564;19.272;2023-08-17T01:43:16;97937.78;;;19.44;92.91
77431;BME280;66498;48.564;19.272;2023-08-17T01:45:42;97934.59;;;19.47;93.38
77431;BME280;66498;48.564;19.272;2023-08-17T01:48:07;97931.13;;;19.52;92.41
77431;BME280;66498;48.564;19.272;2023-08-17T01:50:32;97933.50;;;19.58;91.54
77431;BME280;66498;48.564;19.272;2023-08-17T01:52:58;97931.63;;;19.59;91.82
77431;BME280;66498;48.564;19.272;2023-08-17T01:55:23;97934.28;;;19.79;90.41
77431;BME280;66498;48.564;19.272;2023-08-17T01:57:49;97935.13;;;19.65;90.96
77431;BME280;66498;48.564;19.272;2023-08-17T02:00:15;97935.13;;;19.65;90.91
77431;BME280;66498;48.564;19.272;2023-08-17T02:02:40;97928.97;;;19.69;90.76
77431;BME280;66498;48.564;19.272;2023-08-17T02:05:06;97935.38;;;19.43;91.94
77431;BME280;66498;48.564;19.272;2023-08-17T02:07:32;97927.13;;;19.39;92.58
77431;BME280;66498;48.564;19.272;2023-08-17T02:09:57;97926.34;;;19.33;93.45
77431;BME280;66498;48.564;19.272;2023-08-17T02:12:23;97935.41;;;19.22;93.93
77431;BME280;66498;48.564;19.272;2023-08-17T02:14:48;97929.03;;;19.13;92.83
77431;BME280;66498;48.564;19.272;2023-08-17T02:17:14;97929.03;;;19.08;93.99
77431;BME280;66498;48.564;19.272;2023-08-17T02:19:42;97926.38;;;19.03;94.04
77431;BME280;66498;48.564;19.272;2023-08-17T02:22:08;97926.88;;;19.15;92.53
77431;BME280;66498;48.564;19.272;2023-08-17T02:24:33;97925.84;;;19.11;91.83
77431;BME280;66498;48.564;19.272;2023-08-17T02:26:59;97920.25;;;19.07;92.93
77431;BME280;66498;48.564;19.272;2023-08-17T02:29:24;97921.31;;;19.01;94.08
77431;BME280;66498;48.564;19.272;2023-08-17T02:31:49;97925.56;;;18.87;95.27
77431;BME280;66498;48.564;19.272;2023-08-17T02:34:15;97929.53;;;18.84;95.81
77431;BME280;66498;48.564;19.272;2023-08-17T02:36:40;97915.22;;;18.96;94.06
77431;BME280;66498;48.564;19.272;2023-08-17T02:39:06;97925.81;;;18.80;94.74
77431;BME280;66498;48.564;19.272;2023-08-17T02:41:32;97931.41;;;18.79;94.94
77431;BME280;66498;48.564;19.272;2023-08-17T02:43:58;97934.34;;;18.93;95.18
77431;BME280;66498;48.564;19.272;2023-08-17T02:46:23;97924.78;;;18.97;95.16
77431;BME280;66498;48.564;19.272;2023-08-17T02:48:49;97931.16;;;18.96;95.15
77431;BME280;66498;48.564;19.272;2023-08-17T02:51:15;97919.19;;;19.03;94.58
77431;BME280;66498;48.564;19.272;2023-08-17T02:53:41;97923.16;;;19.21;93.46
77431;BME280;66498;48.564;19.272;2023-08-17T02:56:06;97915.16;;;19.42;91.97
77431;BME280;66498;48.564;19.272;2023-08-17T02:58:32;97913.81;;;19.39;92.06
77431;BME280;66498;48.564;19.272;2023-08-17T03:00:57;97924.75;;;19.12;93.74
77431;BME280;66498;48.564;19.272;2023-08-17T03:03:23;97922.63;;;19.34;92.14
77431;BME280;66498;48.564;19.272;2023-08-17T03:05:48;97916.97;;;19.56;90.34
77431;BME280;66498;48.564;19.272;2023-08-17T03:08:14;97918.34;;;19.54;90.11
77431;BME280;66498;48.564;19.272;2023-08-17T03:10:39;97926.63;;;19.22;91.75
77431;BME280;66498;48.564;19.272;2023-08-17T03:13:04;97919.72;;;19.10;92.52
77431;BME280;66498;48.564;19.272;2023-08-17T03:15:30;97916.25;;;19.15;92.29
77431;BME280;66498;48.564;19.272;2023-08-17T03:17:55;97919.19;;;18.98;92.64
77431;BME280;66498;48.564;19.272;2023-08-17T03:20:21;97926.63;;;18.91;93.42
77431;BME280;66498;48.564;19.272;2023-08-17T03:22:46;97918.41;;;19.03;92.36
77431;BME280;66498;48.564;19.272;2023-08-17T03:25:12;97919.19;;;18.93;93.45
77431;BME280;66498;48.564;19.272;2023-08-17T03:27:37;97919.91;;;18.68;94.61
77431;BME280;66498;48.564;19.272;2023-08-17T03:30:04;97918.84;;;18.64;95.19
77431;BME280;66498;48.564;19.272;2023-08-17T03:32:30;97921.75;;;18.47;96.81
77431;BME280;66498;48.564;19.272;2023-08-17T03:34:55;97918.78;;;18.33;97.25
77431;BME280;66498;48.564;19.272;2023-08-17T03:37:21;97909.78;;;18.39;96.68
77431;BME280;66498;48.564;19.272;2023-08-17T03:39:48;97912.44;;;18.50;95.36
77431;BME280;66498;48.564;19.272;2023-08-17T03:42:14;97914.34;;;18.59;95.12
77431;BME280;66498;48.564;19.272;2023-08-17T03:44:39;97921.78;;;18.62;95.30
77431;BME280;66498;48.564;19.272;2023-08-17T03:47:05;97923.69;;;18.72;95.00
77431;BME280;66498;48.564;19.272;2023-08-17T03:49:30;97920.69;;;18.38;97.01
77431;BME280;66498;48.564;19.272;2023-08-17T03:51:56;97912.09;;;18.20;98.39
77431;BME280;66498;48.564;19.272;2023-08-17T03:54:23;97925.34;;;18.10;98.67
77431;BME280;66498;48.564;19.272;2023-08-17T03:56:48;97926.38;;;17.99;99.10
77431;BME280;66498;48.564;19.272;2023-08-17T03:59:15;97937.78;;;18.00;99.11
77431;BME280;66498;48.564;19.272;2023-08-17T04:01:40;97934.66;;;18.08;98.50
77431;BME280;66498;48.564;19.272;2023-08-17T04:04:06;97940.00;;;18.23;97.29
77431;BME280;66498;48.564;19.272;2023-08-17T04:06:32;97932.94;;;18.49;96.04
77431;BME280;66498;48.564;19.272;2023-08-17T04:08:58;97930.09;;;18.86;93.67
77431;BME280;66498;48.564;19.272;2023-08-17T04:11:23;97932.47;;;18.98;93.18
77431;BME280;66498;48.564;19.272;2023-08-17T04:13:49;97936.22;;;19.02;92.75
77431;BME280;66498;48.564;19.272;2023-08-17T04:16:14;97939.03;;;18.50;96.38
77431;BME280;66498;48.564;19.272;2023-08-17T04:18:40;97949.06;;;18.27;97.87
77431;BME280;66498;48.564;19.272;2023-08-17T04:21:06;97951.69;;;18.17;99.59
77431;BME280;66498;48.564;19.272;2023-08-17T04:23:32;97957.78;;;18.12;100.00
77431;BME280;66498;48.564;19.272;2023-08-17T04:25:57;97951.91;;;18.10;100.00
77431;BME280;66498;48.564;19.272;2023-08-17T04:28:23;97949.84;;;18.17;100.00
77431;BME280;66498;48.564;19.272;2023-08-17T04:30:48;97948.09;;;18.49;98.22
77431;BME280;66498;48.564;19.272;2023-08-17T04:33:14;97946.97;;;18.34;99.81
77431;BME280;66498;48.564;19.272;2023-08-17T04:35:39;97952.63;;;18.63;97.99
77431;BME280;66498;48.564;19.272;2023-08-17T04:38:05;97953.97;;;18.66;97.94
77431;BME280;66498;48.564;19.272;2023-08-17T04:40:31;97950.56;;;18.86;96.83
77431;BME280;66498;48.564;19.272;2023-08-17T04:42:57;97951.38;;;19.07;95.57
77431;BME280;66498;48.564;19.272;2023-08-17T04:45:23;97956.97;;;19.10;95.72
77431;BME280;66498;48.564;19.272;2023-08-17T04:47:48;97952.72;;;19.20;95.38
77431;BME280;66498;48.564;19.272;2023-08-17T04:50:14;97949.78;;;19.21;95.47
77431;BME280;66498;48.564;19.272;2023-08-17T04:52:43;97953.50;;;19.20;94.38
77431;BME280;66498;48.564;19.272;2023-08-17T04:55:10;97956.19;;;19.20;96.48
77431;BME280;66498;48.564;19.272;2023-08-17T04:57:36;97952.72;;;19.20;96.36
77431;BME280;66498;48.564;19.272;2023-08-17T05:00:02;97952.44;;;19.21;96.72
77431;BME280;66498;48.564;19.272;2023-08-17T05:02:28;97953.22;;;19.32;97.23
77431;BME280;66498;48.564;19.272;2023-08-17T05:04:54;97949.50;;;19.38;96.48
77431;BME280;66498;48.564;19.272;2023-08-17T05:07:19;97950.31;;;19.23;96.18
77431;BME280;66498;48.564;19.272;2023-08-17T05:09:45;97942.59;;;19.32;95.48
77431;BME280;66498;48.564;19.272;2023-08-17T05:12:10;97955.13;;;19.26;97.09
77431;BME280;66498;48.564;19.272;2023-08-17T05:14:36;97954.31;;;19.31;95.35
77431;BME280;66498;48.564;19.272;2023-08-17T05:17:02;97954.03;;;19.27;94.81
77431;BME280;66498;48.564;19.272;2023-08-17T05:19:27;97950.28;;;19.38;94.04
77431;BME280;66498;48.564;19.272;2023-08-17T05:21:53;97945.75;;;19.59;92.34
77431;BME280;66498;48.564;19.272;2023-08-17T05:24:19;97946.84;;;19.53;91.97
77431;BME280;66498;48.564;19.272;2023-08-17T05:26:45;97944.41;;;19.62;90.10
77431;BME280;66498;48.564;19.272;2023-08-17T05:29:12;97951.59;;;19.87;89.44
77431;BME280;66498;48.564;19.272;2023-08-17T05:31:37;97953.69;;;19.90;89.52
77431;BME280;66498;48.564;19.272;2023-08-17T05:34:03;97948.28;;;20.11;88.94
77431;BME280;66498;48.564;19.272;2023-08-17T05:36:29;97951.56;;;19.92;90.57
77431;BME280;66498;48.564;19.272;2023-08-17T05:38:54;97950.69;;;20.12;88.51
77431;BME280;66498;48.564;19.272;2023-08-17T05:41:19;97953.66;;;20.00;89.95
77431;BME280;66498;48.564;19.272;2023-08-17T05:43:45;97950.22;;;19.95;87.84
77431;BME280;66498;48.564;19.272;2023-08-17T05:46:10;97954.41;;;20.21;87.34
77431;BME280;66498;48.564;19.272;2023-08-17T05:48:36;97951.06;;;20.55;86.31
77431;BME280;66498;48.564;19.272;2023-08-17T05:51:02;97965.09;;;20.71;85.52
77431;BME280;66498;48.564;19.272;2023-08-17T05:53:27;97960.53;;;20.76;84.51
77431;BME280;66498;48.564;19.272;2023-08-17T05:55:53;97965.63;;;20.68;84.81
77431;BME280;66498;48.564;19.272;2023-08-17T05:58:18;97960.06;;;20.64;84.95
77431;BME280;66498;48.564;19.272;2023-08-17T06:00:46;97960.22;;;20.83;84.39
77431;BME280;66498;48.564;19.272;2023-08-17T06:03:11;97963.50;;;20.70;84.02
77431;BME280;66498;48.564;19.272;2023-08-17T06:05:37;97968.59;;;20.61;84.68
77431;BME280;66498;48.564;19.272;2023-08-17T06:08:03;97960.84;;;20.65;84.96
77431;BME280;66498;48.564;19.272;2023-08-17T06:10:28;97964.13;;;20.46;86.54
77431;BME280;66498;48.564;19.272;2023-08-17T06:12:55;97958.34;;;20.78;85.20
77431;BME280;66498;48.564;19.272;2023-08-17T06:15:22;97959.13;;;20.84;85.40
77431;BME280;66498;48.564;19.272;2023-08-17T06:17:48;97959.66;;;20.86;84.50
77431;BME280;66498;48.564;19.272;2023-08-17T06:20:16;97975.66;;;20.86;83.93
77431;BME280;66498;48.564;19.272;2023-08-17T06:22:42;97966.19;;;21.04;84.08
77431;BME280;66498;48.564;19.272;2023-08-17T06:25:08;97967.34;;;20.93;84.99
77431;BME280;66498;48.564;19.272;2023-08-17T06:27:37;97963.97;;;20.77;84.85
77431;BME280;66498;48.564;19.272;2023-08-17T06:30:03;97959.19;;;20.74;85.32
77431;BME280;66498;48.564;19.272;2023-08-17T06:32:32;97953.38;;;21.06;83.56
77431;BME280;66498;48.564;19.272;2023-08-17T06:34:58;97962.97;;;21.07;83.39
77431;BME280;66498;48.564;19.272;2023-08-17T06:37:25;97961.88;;;21.08;82.74
77431;BME280;66498;48.564;19.272;2023-08-17T06:39:50;97957.34;;;21.09;82.46
77431;BME280;66498;48.564;19.272;2023-08-17T06:42:16;97959.19;;;21.13;82.51
77431;BME280;66498;48.564;19.272;2023-08-17T06:44:43;97957.91;;;21.06;83.00
77431;BME280;66498;48.564;19.272;2023-08-17T06:47:08;97964.38;;;21.34;81.00
77431;BME280;66498;48.564;19.272;2023-08-17T06:49:35;97965.19;;;21.29;82.21
77431;BME280;66498;48.564;19.272;2023-08-17T06:52:01;97957.66;;;21.02;81.08
77431;BME280;66498;48.564;19.272;2023-08-17T06:54:27;97950.78;;;21.30;80.86
77431;BME280;66498;48.564;19.272;2023-08-17T06:56:52;97955.34;;;21.59;79.28
77431;BME280;66498;48.564;19.272;2023-08-17T06:59:18;97964.28;;;21.73;79.21
77431;BME280;66498;48.564;19.272;2023-08-17T07:01:44;97962.59;;;21.82;77.80
77431;BME280;66498;48.564;19.272;2023-08-17T07:04:09;97964.38;;;21.34;82.45
77431;BME280;66498;48.564;19.272;2023-08-17T07:06:35;97967.78;;;21.44;83.24
77431;BME280;66498;48.564;19.272;2023-08-17T07:09:00;97963.97;;;21.51;83.40
77431;BME280;66498;48.564;19.272;2023-08-17T07:11:26;97970.41;;;21.73;81.28
77431;BME280;66498;48.564;19.272;2023-08-17T07:13:52;97968.38;;;22.37;78.83
77431;BME280;66498;48.564;19.272;2023-08-17T07:16:17;97971.97;;;23.08;76.30
77431;BME280;66498;48.564;19.272;2023-08-17T07:18:43;97961.94;;;23.79;75.21
77431;BME280;66498;48.564;19.272;2023-08-17T07:21:11;97957.63;;;24.61;70.19
77431;BME280;66498;48.564;19.272;2023-08-17T07:23:37;97961.50;;;24.55;69.97
77431;BME280;66498;48.564;19.272;2023-08-17T07:26:03;97958.66;;;24.24;67.84
77431;BME280;66498;48.564;19.272;2023-08-17T07:28:28;97964.00;;;24.38;66.56
77431;BME280;66498;48.564;19.272;2023-08-17T07:31:01;97969.06;;;24.89;64.86
77431;BME280;66498;48.564;19.272;2023-08-17T07:33:27;97960.19;;;24.66;64.40
77431;BME280;66498;48.564;19.272;2023-08-17T07:35:53;97966.13;;;24.77;64.84
77431;BME280;66498;48.564;19.272;2023-08-17T07:38:21;97959.66;;;25.14;64.40
77431;BME280;66498;48.564;19.272;2023-08-17T07:40:46;97963.94;;;25.01;65.59
77431;BME280;66498;48.564;19.272;2023-08-17T07:43:12;97971.13;;;24.92;66.67
77431;BME280;66498;48.564;19.272;2023-08-17T07:45:37;97967.41;;;24.79;64.96
77431;BME280;66498;48.564;19.272;2023-08-17T07:48:03;97971.06;;;24.20;65.92
77431;BME280;66498;48.564;19.272;2023-08-17T07:50:30;97955.47;;;24.36;67.18
77431;BME280;66498;48.564;19.272;2023-08-17T07:52:55;97953.97;;;24.57;65.73
77431;BME280;66498;48.564;19.272;2023-08-17T07:55:28;97958.53;;;24.57;64.91
77431;BME280;66498;48.564;19.272;2023-08-17T07:58:06;97957.16;;;24.31;65.83
77431;BME280;66498;48.564;19.272;2023-08-17T08:00:32;97961.38;;;23.64;68.39
77431;BME280;66498;48.564;19.272;2023-08-17T08:02:58;97962.03;;;23.74;69.11
77431;BME280;66498;48.564;19.272;2023-08-17T08:05:23;97971.03;;;23.65;70.08
77431;BME280;66498;48.564;19.272;2023-08-17T08:07:49;97965.63;;;23.37;72.84
77431;BME280;66498;48.564;19.272;2023-08-17T08:10:15;97975.38;;;23.14;75.76
77431;BME280;66498;48.564;19.272;2023-08-17T08:12:45;97968.78;;;23.06;72.63
77431;BME280;66498;48.564;19.272;2023-08-17T08:15:22;97978.03;;;23.14;73.54
77431;BME280;66498;48.564;19.272;2023-08-17T08:17:49;97971.78;;;23.19;75.17
77431;BME280;66498;48.564;19.272;2023-08-17T08:20:14;97965.19;;;22.97;75.51
77431;BME280;66498;48.564;19.272;2023-08-17T08:22:42;97969.53;;;23.26;73.95
77431;BME280;66498;48.564;19.272;2023-08-17T08:25:11;97966.34;;;23.56;74.98
77431;BME280;66498;48.564;19.272;2023-08-17T08:27:37;97966.81;;;23.45;74.97
77431;BME280;66498;48.564;19.272;2023-08-17T08:30:06;97958.69;;;23.64;70.97
77431;BME280;66498;48.564;19.272;2023-08-17T08:32:32;97960.00;;;23.66;71.80
77431;BME280;66498;48.564;19.272;2023-08-17T08:34:57;97957.06;;;24.50;69.86
77431;BME280;66498;48.564;19.272;2023-08-17T08:37:23;97959.19;;;24.62;68.78
77431;BME280;66498;48.564;19.272;2023-08-17T08:39:51;97954.00;;;24.02;69.74
77431;BME280;66498;48.564;19.272;2023-08-17T08:42:18;97956.88;;;23.78;70.46
77431;BME280;66498;48.564;19.272;2023-08-17T08:44:45;97958.34;;;23.98;72.50
77431;BME280;66498;48.564;19.272;2023-08-17T08:47:12;97952.97;;;24.12;70.13
77431;BME280;66498;48.564;19.272;2023-08-17T08:49:40;97952.50;;;23.96;69.66
77431;BME280;66498;48.564;19.272;2023-08-17T08:52:12;97952.00;;;24.07;71.38
77431;BME280;66498;48.564;19.272;2023-08-17T08:54:41;97950.72;;;24.19;67.82
77431;BME280;66498;48.564;19.272;2023-08-17T08:57:13;97941.19;;;24.99;66.98
77431;BME280;66498;48.564;19.272;2023-08-17T08:59:42;97938.50;;;24.99;66.55
77431;BME280;66498;48.564;19.272;2023-08-17T09:02:15;97947.44;;;25.62;63.74
77431;BME280;66498;48.564;19.272;2023-08-17T09:04:43;97947.63;;;25.12;65.84
77431;BME280;66498;48.564;19.272;2023-08-17T09:07:14;97946.31;;;25.09;61.52
77431;BME280;66498;48.564;19.272;2023-08-17T09:09:39;97939.38;;;25.93;60.42
77431;BME280;66498;48.564;19.272;2023-08-17T09:12:07;97933.78;;;25.27;60.51
77431;BME280;66498;48.564;19.272;2023-08-17T09:14:34;97935.44;;;25.99;58.37
77431;BME280;66498;48.564;19.272;2023-08-17T09:41:44;97903.66;;;27.78;53.22
77431;BME280;66498;48.564;19.272;2023-08-17T09:44:11;97911.50;;;28.22;53.13
77431;BME280;66498;48.564;19.272;2023-08-17T09:46:36;97908.16;;;27.95;53.54
77431;BME280;66498;48.564;19.272;2023-08-17T09:49:02;97898.59;;;28.57;49.86
77431;BME280;66498;48.564;19.272;2023-08-17T09:51:31;97898.91;;;27.75;54.65
77431;BME280;66498;48.564;19.272;2023-08-17T09:53:57;97896.06;;;27.25;55.57
77431;BME280;66498;48.564;19.272;2023-08-17T09:56:23;97894.59;;;27.45;54.95
77431;BME280;66498;48.564;19.272;2023-08-17T09:58:50;97891.50;;;26.91;54.35
77431;BME280;66498;48.564;19.272;2023-08-17T10:01:15;97890.13;;;26.50;56.82
77431;BME280;66498;48.564;19.272;2023-08-17T10:03:45;97888.09;;;25.89;60.48
77431;BME280;66498;48.564;19.272;2023-08-17T10:06:12;97889.88;;;25.63;61.81
77431;BME280;66498;48.564;19.272;2023-08-17T10:08:43;97892.53;;;25.23;59.78
77431;BME280;66498;48.564;19.272;2023-08-17T10:11:09;97889.44;;;25.07;61.39
77431;BME280;66498;48.564;19.272;2023-08-17T10:16:22;97885.84;;;25.12;60.95
77431;BME280;66498;48.564;19.272;2023-08-17T10:18:59;97891.22;;;25.12;61.33
77431;BME280;66498;48.564;19.272;2023-08-17T10:21:57;97894.13;;;25.01;61.62
77431;BME280;66498;48.564;19.272;2023-08-17T10:24:31;97907.16;;;25.39;63.99
77431;BME280;66498;48.564;19.272;2023-08-17T10:27:00;97904.63;;;25.34;64.14
77431;BME280;66498;48.564;19.272;2023-08-17T10:29:26;97914.22;;;25.58;63.08
77431;BME280;66498;48.564;19.272;2023-08-17T10:31:52;97917.75;;;25.76;65.43
77431;BME280;66498;48.564;19.272;2023-08-17T10:34:18;97913.47;;;26.06;62.24
77431;BME280;66498;48.564;19.272;2023-08-17T10:36:45;97903.94;;;26.08;60.80
77431;BME280;66498;48.564;19.272;2023-08-17T10:39:21;97915.75;;;26.56;60.72
77431;BME280;66498;48.564;19.272;2023-08-17T10:41:52;97915.22;;;27.32;58.11
77431;BME280;66498;48.564;19.272;2023-08-17T10:44:18;97901.13;;;27.73;56.76
77431;BME280;66498;48.564;19.272;2023-08-17T10:47:29;97906.31;;;28.17;54.99
77431;BME280;66498;48.564;19.272;2023-08-17T10:50:04;97912.06;;;27.30;56.92
77431;BME280;66498;48.564;19.272;2023-08-17T10:52:31;97911.78;;;27.14;56.09
77431;BME280;66498;48.564;19.272;2023-08-17T10:55:09;97908.63;;;26.95;55.37
77431;BME280;66498;48.564;19.272;2023-08-17T10:57:39;97909.22;;;27.09;58.63
77431;BME280;66498;48.564;19.272;2023-08-17T11:00:15;97908.81;;;27.54;59.28
77431;BME280;66498;48.564;19.272;2023-08-17T11:02:51;97902.88;;;27.69;56.63
77431;BME280;66498;48.564;19.272;2023-08-17T11:05:46;97899.06;;;27.32;58.78
77431;BME280;66498;48.564;19.272;2023-08-17T11:08:29;97899.63;;;27.46;54.21
77431;BME280;66498;48.564;19.272;2023-08-17T11:11:08;97902.31;;;27.55;56.33
77431;BME280;66498;48.564;19.272;2023-08-17T11:13:36;97892.06;;;27.78;53.17
77431;BME280;66498;48.564;19.272;2023-08-17T11:16:03;97901.53;;;27.46;53.63
77431;BME280;66498;48.564;19.272;2023-08-17T11:18:29;97895.94;;;27.59;55.11
77431;BME280;66498;48.564;19.272;2023-08-17T11:20:56;97883.72;;;27.62;52.23
77431;BME280;66498;48.564;19.272;2023-08-17T11:23:28;97883.19;;;27.39;52.71
77431;BME280;66498;48.564;19.272;2023-08-17T11:25:54;97880.69;;;27.64;52.10
77431;BME280;66498;48.564;19.272;2023-08-17T11:28:21;97874.72;;;27.88;52.72
77431;BME280;66498;48.564;19.272;2023-08-17T11:30:58;97879.75;;;27.59;54.03
77431;BME280;66498;48.564;19.272;2023-08-17T11:33:26;97872.69;;;27.38;52.27
77431;BME280;66498;48.564;19.272;2023-08-17T11:35:54;97876.22;;;28.06;52.58
77431;BME280;66498;48.564;19.272;2023-08-17T11:38:20;97872.53;;;28.11;51.21
77431;BME280;66498;48.564;19.272;2023-08-17T11:40:45;97864.00;;;28.50;52.94
77431;BME280;66498;48.564;19.272;2023-08-17T11:43:11;97865.59;;;28.51;54.77
77431;BME280;66498;48.564;19.272;2023-08-17T11:45:37;97866.91;;;27.95;52.41
77431;BME280;66498;48.564;19.272;2023-08-17T11:48:03;97868.56;;;27.49;51.87
77431;BME280;66498;48.564;19.272;2023-08-17T11:50:29;97866.09;;;27.65;54.84
77431;BME280;66498;48.564;19.272;2023-08-17T11:52:59;97855.72;;;27.46;53.95
77431;BME280;66498;48.564;19.272;2023-08-17T11:55:26;97853.53;;;27.39;52.93
77431;BME280;66498;48.564;19.272;2023-08-17T11:57:52;97860.06;;;27.21;54.54
77431;BME280;66498;48.564;19.272;2023-08-17T12:00:22;97856.63;;;27.58;54.50
77431;BME280;66498;48.564;19.272;2023-08-17T12:02:51;97862.34;;;26.93;56.59
77431;BME280;66498;48.564;19.272;2023-08-17T12:05:24;97854.66;;;26.56;56.00
77431;BME280;66498;48.564;19.272;2023-08-17T12:07:55;97859.03;;;26.35;55.76
77431;BME280;66498;48.564;19.272;2023-08-17T12:10:21;97862.81;;;26.16;56.07
77431;BME280;66498;48.564;19.272;2023-08-17T12:12:50;97855.91;;;25.76;57.03
77431;BME280;66498;48.564;19.272;2023-08-17T12:15:19;97866.09;;;25.47;57.53
77431;BME280;66498;48.564;19.272;2023-08-17T12:17:48;97869.72;;;25.43;60.11
77431;BME280;66498;48.564;19.272;2023-08-17T12:20:20;97866.34;;;25.29;57.78
77431;BME280;66498;48.564;19.272;2023-08-17T12:22:48;97863.78;;;25.01;59.42
77431;BME280;66498;48.564;19.272;2023-08-17T12:25:38;97862.59;;;24.85;60.21
77431;BME280;66498;48.564;19.272;2023-08-17T12:28:06;97859.03;;;24.75;60.87
77431;BME280;66498;48.564;19.272;2023-08-17T12:30:38;97853.44;;;24.63;61.41
77431;BME280;66498;48.564;19.272;2023-08-17T12:33:06;97847.06;;;24.59;61.53
77431;BME280;66498;48.564;19.272;2023-08-17T12:35:33;97853.56;;;24.58;61.80
77431;BME280;66498;48.564;19.272;2023-08-17T12:38:06;97839.78;;;24.37;61.75
77431;BME280;66498;48.564;19.272;2023-08-17T12:40:32;97846.97;;;24.28;62.36
77431;BME280;66498;48.564;19.272;2023-08-17T12:42:59;97834.09;;;24.39;61.56
77431;BME280;66498;48.564;19.272;2023-08-17T12:45:26;97828.31;;;24.23;62.11
77431;BME280;66498;48.564;19.272;2023-08-17T12:48:05;97823.59;;;24.28;61.87
77431;BME280;66498;48.564;19.272;2023-08-17T12:50:36;97817.09;;;24.21;63.95
77431;BME280;66498;48.564;19.272;2023-08-17T12:53:03;97818.47;;;24.32;64.34
77431;BME280;66498;48.564;19.272;2023-08-17T12:55:30;97826.97;;;24.34;63.77
77431;BME280;66498;48.564;19.272;2023-08-17T12:57:57;97824.97;;;24.40;63.59
77431;BME280;66498;48.564;19.272;2023-08-17T13:00:22;97818.72;;;24.44;62.86
77431;BME280;66498;48.564;19.272;2023-08-17T13:02:48;97818.44;;;24.46;61.05
77431;BME280;66498;48.564;19.272;2023-08-17T13:05:16;97816.47;;;24.60;63.76
77431;BME280;66498;48.564;19.272;2023-08-17T13:07:42;97825.06;;;24.48;62.95
77431;BME280;66498;48.564;19.272;2023-08-17T13:10:07;97819.38;;;24.72;61.59
77431;BME280;66498;48.564;19.272;2023-08-17T13:12:34;97822.75;;;25.09;62.24
77431;BME280;66498;48.564;19.272;2023-08-17T13:15:00;97816.69;;;25.26;63.35
77431;BME280;66498;48.564;19.272;2023-08-17T13:17:26;97812.53;;;25.51;60.77
77431;BME280;66498;48.564;19.272;2023-08-17T13:19:51;97817.50;;;25.75;57.92